Terminal Aerodrome Forecast
Issued by NWS Wilmington, NC

Home | Current Version | Previous Version | Text Only | Print | Product List | Glossary On
Versions: 1 2 3 4 5 6 7 8 9 10 11 12
706
FTUS42 KILM 222325
TAFMYR
TAF
KMYR 222325Z 2300/2324 11006KT P6SM SCT050 OVC250
     FM230600 05005KT P6SM BKN050
      TEMPO 2310/2312 5SM BR
     FM231200 06008KT P6SM BKN100
     FM231800 11008KT P6SM BKN250
      AMD LTD TO CLD VIS AND WIND 2304/2311=

USA.gov is the U.S. government's official web portal to all federal, state and local government web resources and services.